EGYP

Mount Pleasant Airport

Mount Pleasant, Falkland Islands
METAR EGYP 230950Z 29010KT CAVOK 09/03 Q1020 BLU NOSIG
Observed Flight Rules
Feb-23 @ 09:50 UTC (41 minutes ago) Visual Flight Rules
Wind Visibility Clouds
290° at 10 knots 10,000+ meters
  • Clear skies
Temperatures Readings
Current 9°C / 48°F
Dewpoint 3°C / 37°F
Humidity 66%
Altimeter 30.12" Hg
Pressure 1020 hPa
Elevation 74
METAR EGYP 230950Z 29010KT CAVOK 09/03 Q1020 BLU NOSIG
Observed Flight Rules
Feb-23 @ 09:50 UTC
(41 minutes ago)
VFR
Wind Visibility
290° at 10 knots 10,000+ meters
Clouds
  • Clear skies
Temperature Dewpoint
9°C / 48°F 3°C / 37°F
Humidity Altimeter Pressure
66% 30.12" Hg 1020 hPa